Terminal Aerodrome Forecast
Issued by NWS Melbourne, FL

Home | Current Version | Previous Version | Text Only | Print | Product List | Glossary On
Versions: 1 2 3 4 5 6 7 8 9 10 11 12 13 14 15 16 17 18
000
FTUS42 KMLB 222300 RRA
TAFMLB
TAF
KMLB 222342Z 2300/2324 VRB03KT P6SM SCT120 BKN250
     FM230400 18003KT P6SM FEW020 SCT250
     FM231300 20006KT P6SM SCT020 SCT250
     FM231600 13009KT P6SM VCTS SCT025CB SCT050 SCT250=

USA.gov is the U.S. government's official web portal to all federal, state and local government web resources and services.